Time;durP1;ratioP1;P1;durP2;ratioP2;P2;SDS_P1;SDS_P2;PMS_P1;PMS_P2;Temp;Humidity;BMP_temperature;BMP_pressure;BME280_temperature;BME280_humidity;BME280_pressure;Samples;Min_cycle;Max_cycle;Signal;HPM_P1;HPM_P2
2021/03/12 00:01:18;;;;;;;10.67;1.97;;;7.00;85.20;;;;;;5071549;28;20127;-66
2021/03/12 00:03:44;;;;;;;11.67;2.30;;;7.00;85.10;;;;;;5071042;28;20055;-66
2021/03/12 00:06:10;;;;;;;20.57;2.80;;;6.90;85.10;;;;;;5071880;28;20117;-66
2021/03/12 00:08:42;;;;;;;14.43;2.60;;;6.90;85.20;;;;;;5071980;28;20053;-66
2021/03/12 00:11:08;;;;;;;9.43;2.13;;;6.90;85.20;;;;;;5070909;28;20733;-66
2021/03/12 00:13:35;;;;;;;14.27;2.37;;;6.90;85.00;;;;;;5071727;28;20060;-66
2021/03/12 00:16:02;;;;;;;14.53;2.50;;;7.00;85.10;;;;;;5071767;28;20318;-66
2021/03/12 00:18:39;;;;;;;14.73;2.30;;;7.00;85.00;;;;;;5071300;28;20406;-66
2021/03/12 00:21:07;;;;;;;6.63;1.90;;;7.00;84.70;;;;;;5071700;28;20303;-66
2021/03/12 00:23:33;;;;;;;11.60;2.20;;;7.00;84.60;;;;;;5071793;28;20340;-66
2021/03/12 00:25:59;;;;;;;12.70;2.87;;;7.00;84.50;;;;;;5070561;28;20306;-66
2021/03/12 00:28:25;;;;;;;12.63;2.30;;;7.10;84.40;;;;;;5071615;28;20294;-66
2021/03/12 00:30:51;;;;;;;11.53;2.30;;;7.00;84.20;;;;;;5070472;28;20329;-66
2021/03/12 00:33:17;;;;;;;10.93;2.10;;;7.00;84.10;;;;;;5070763;28;20131;-66
2021/03/12 00:35:44;;;;;;;12.30;2.50;;;7.00;84.10;;;;;;5071401;28;20299;-66
2021/03/12 00:38:12;;;;;;;12.67;1.90;;;7.00;84.40;;;;;;5070517;28;20469;-66
2021/03/12 00:40:53;;;;;;;10.77;2.00;;;7.00;84.10;;;;;;5071209;28;20350;-66
2021/03/12 00:43:20;;;;;;;14.00;2.58;;;7.10;84.00;;;;;;5071549;28;20382;-66
2021/03/12 00:45:51;;;;;;;9.33;2.10;;;7.10;83.70;;;;;;5070581;28;20068;-66
2021/03/12 00:48:17;;;;;;;10.80;2.13;;;7.10;83.50;;;;;;5071164;28;20298;-66
2021/03/12 00:50:43;;;;;;;13.40;2.10;;;7.10;83.40;;;;;;5071173;28;20570;-66
2021/03/12 00:53:09;;;;;;;9.93;1.90;;;7.00;83.30;;;;;;5070387;28;20307;-67
2021/03/12 00:55:36;;;;;;;15.93;2.50;;;7.00;83.40;;;;;;5071567;28;20048;-66
2021/03/12 00:58:04;;;;;;;9.60;2.00;;;7.00;83.30;;;;;;5071056;28;20317;-66
2021/03/12 01:00:31;;;;;;;16.07;2.67;;;7.00;83.20;;;;;;5070640;28;20337;-66
2021/03/12 01:02:58;;;;;;;10.47;2.10;;;7.00;83.20;;;;;;5071116;28;20373;-66
2021/03/12 01:05:25;;;;;;;10.00;1.90;;;7.00;83.30;;;;;;5070917;28;20640;-67
2021/03/12 01:07:50;;;;;;;8.70;2.00;;;7.00;83.30;;;;;;5070129;28;20786;-66
2021/03/12 01:10:18;;;;;;;12.80;2.37;;;7.00;83.40;;;;;;5071157;28;20382;-67
2021/03/12 01:12:44;;;;;;;11.30;2.27;;;6.90;83.50;;;;;;5071101;28;20064;-67
2021/03/12 01:15:13;;;;;;;13.57;2.53;;;7.00;83.60;;;;;;5070255;28;20299;-66
2021/03/12 01:17:39;;;;;;;8.03;2.40;;;7.00;83.60;;;;;;5071025;28;20356;-66
2021/03/12 01:20:12;;;;;;;12.23;2.43;;;7.00;83.40;;;;;;5069981;28;20327;-67
2021/03/12 01:22:38;;;;;;;13.30;2.57;;;7.00;83.30;;;;;;5071264;28;20382;-66
2021/03/12 01:25:09;;;;;;;10.93;2.43;;;7.00;83.40;;;;;;5070938;28;20306;-67
2021/03/12 01:27:38;;;;;;;11.70;2.57;;;7.00;83.40;;;;;;5070591;28;20301;-66
2021/03/12 01:30:11;;;;;;;11.00;2.80;;;7.00;83.60;;;;;;5070791;28;20304;-66
2021/03/12 01:32:37;;;;;;;16.97;2.90;;;7.00;83.50;;;;;;5071010;28;20789;-66
2021/03/12 01:35:04;;;;;;;17.13;3.00;;;7.00;83.40;;;;;;5070010;28;20328;-66
2021/03/12 01:37:29;;;;;;;13.40;2.40;;;7.00;83.40;;;;;;5071291;28;20299;-66
2021/03/12 01:39:55;;;;;;;11.77;2.43;;;7.00;83.50;;;;;;5070723;28;20810;-67
2021/03/12 01:42:21;;;;;;;11.00;2.40;;;7.00;83.60;;;;;;5069832;28;20049;-66
2021/03/12 01:44:46;;;;;;;11.97;2.90;;;7.00;83.50;;;;;;5074085;28;20056;-66
2021/03/12 01:47:13;;;;;;;11.70;2.97;;;6.90;83.50;;;;;;5074353;28;20393;-66
2021/03/12 01:49:39;;;;;;;8.73;2.33;;;6.90;83.70;;;;;;5073636;28;20049;-66
2021/03/12 01:52:06;;;;;;;11.30;2.30;;;6.90;83.80;;;;;;5074215;28;20798;-66
2021/03/12 01:54:35;;;;;;;11.80;2.70;;;6.90;83.80;;;;;;5074584;28;20056;-66
2021/03/12 01:57:05;;;;;;;12.13;2.37;;;6.90;83.70;;;;;;5073395;28;20810;-67
2021/03/12 01:59:31;;;;;;;11.40;2.80;;;6.80;83.80;;;;;;5074257;28;20321;-66
2021/03/12 02:01:57;;;;;;;13.23;2.93;;;6.80;84.00;;;;;;5073955;28;20290;-66
2021/03/12 02:04:24;;;;;;;13.67;2.80;;;6.80;83.90;;;;;;5073489;28;20299;-66
2021/03/12 02:06:50;;;;;;;14.97;3.07;;;6.80;84.00;;;;;;5074135;28;20302;-66
2021/03/12 02:09:16;;;;;;;15.57;3.00;;;6.70;83.90;;;;;;5073236;28;20044;-67
2021/03/12 02:11:49;;;;;;;10.97;2.27;;;6.70;83.90;;;;;;5074100;28;20295;-67
2021/03/12 02:14:25;;;;;;;10.90;2.30;;;6.70;84.00;;;;;;5073838;28;20298;-66
2021/03/12 02:17:01;;;;;;;10.63;2.10;;;6.70;84.00;;;;;;5073269;28;20290;-66
2021/03/12 02:19:48;;;;;;;10.70;2.40;;;6.70;84.00;;;;;;5074143;28;20322;-66
2021/03/12 02:22:16;;;;;;;13.83;2.90;;;6.70;83.70;;;;;;5073750;28;20299;-67
2021/03/12 02:24:59;;;;;;;11.60;2.37;;;6.80;83.80;;;;;;5073003;28;20307;-66
2021/03/12 02:27:26;;;;;;;11.70;2.30;;;6.80;83.80;;;;;;5073687;28;20291;-66
2021/03/12 02:29:58;;;;;;;10.97;2.10;;;6.70;83.60;;;;;;5073596;28;20330;-66
2021/03/12 02:32:37;;;;;;;15.40;2.83;;;6.80;83.60;;;;;;5072730;28;20294;-66
2021/03/12 02:35:08;;;;;;;10.43;2.30;;;6.80;83.60;;;;;;5073149;28;20302;-67
2021/03/12 02:37:35;;;;;;;9.27;2.25;;;6.80;83.60;;;;;;5073095;28;20369;-67
2021/03/12 02:40:03;;;;;;;10.57;2.70;;;6.80;83.50;;;;;;5073549;28;20102;-67
2021/03/12 02:42:29;;;;;;;6.10;2.23;;;6.80;83.60;;;;;;5073485;28;20385;-67
2021/03/12 02:44:59;;;;;;;7.50;2.80;;;6.70;83.60;;;;;;5072468;28;20385;-66
2021/03/12 02:47:30;;;;;;;11.83;2.67;;;6.70;83.40;;;;;;5073303;28;20048;-67
2021/03/12 02:49:58;;;;;;;13.00;2.67;;;6.70;83.40;;;;;;5073358;28;20377;-66
2021/03/12 02:52:25;;;;;;;12.20;2.47;;;6.70;83.50;;;;;;5072455;28;20370;-67
2021/03/12 02:54:52;;;;;;;15.13;3.23;;;6.70;83.40;;;;;;5072275;28;20298;-67
2021/03/12 02:57:21;;;;;;;14.67;3.30;;;6.60;83.40;;;;;;5073097;28;20309;-67
2021/03/12 02:59:50;;;;;;;13.23;2.63;;;6.70;83.50;;;;;;5072032;28;20318;-67
2021/03/12 03:02:21;;;;;;;8.93;2.37;;;6.70;83.50;;;;;;5072876;28;20349;-67
2021/03/12 03:04:47;;;;;;;10.97;3.73;;;6.60;83.40;;;;;;5073055;28;20356;-66
2021/03/12 03:07:14;;;;;;;14.17;2.40;;;6.70;83.70;;;;;;5072144;28;20327;-67
2021/03/12 03:09:42;;;;;;;11.70;2.43;;;6.60;83.40;;;;;;5073006;28;20325;-67
2021/03/12 03:12:14;;;;;;;11.20;2.30;;;6.60;83.40;;;;;;5072844;28;20301;-66
2021/03/12 03:14:40;;;;;;;11.73;3.30;;;6.50;83.60;;;;;;5072016;28;20310;-67
2021/03/12 03:17:08;;;;;;;13.73;2.43;;;6.50;83.60;;;;;;5072681;28;20045;-66
2021/03/12 03:19:37;;;;;;;10.20;2.60;;;6.40;83.80;;;;;;5072168;28;20307;-67
2021/03/12 03:22:03;;;;;;;14.43;2.30;;;6.40;83.80;;;;;;5072299;28;20344;-66
2021/03/12 03:24:30;;;;;;;11.87;2.53;;;6.30;83.80;;;;;;5072749;28;20621;-67
2021/03/12 03:26:56;;;;;;;11.53;1.97;;;6.30;84.00;;;;;;5071729;28;20321;-66
2021/03/12 03:29:22;;;;;;;9.30;2.50;;;6.20;84.20;;;;;;5072311;28;20383;-67
2021/03/12 03:31:49;;;;;;;11.40;2.57;;;6.20;84.20;;;;;;5072550;28;20048;-67
2021/03/12 03:34:15;;;;;;;15.77;2.37;;;6.20;84.30;;;;;;5071696;28;20294;-67
2021/03/12 03:36:44;;;;;;;8.67;2.10;;;6.10;84.10;;;;;;5072125;28;20791;-67
2021/03/12 03:39:11;;;;;;;12.87;2.53;;;6.10;84.20;;;;;;5072241;28;20310;-66
2021/03/12 03:41:44;;;;;;;6.33;2.20;;;6.10;84.40;;;;;;5071548;28;20810;-67
2021/03/12 03:44:12;;;;;;;16.47;2.83;;;6.00;84.40;;;;;;5072330;28;20299;-67
2021/03/12 03:46:40;;;;;;;12.50;2.50;;;6.00;84.40;;;;;;5072534;28;20405;-67
2021/03/12 03:49:09;;;;;;;12.67;2.80;;;6.00;84.30;;;;;;5071471;28;20295;-67
2021/03/12 03:51:38;;;;;;;14.53;2.87;;;5.90;84.30;;;;;;5072322;28;20337;-66
2021/03/12 03:54:06;;;;;;;11.33;2.23;;;5.90;84.40;;;;;;5071826;28;20382;-66
2021/03/12 03:56:34;;;;;;;11.83;2.70;;;5.90;84.60;;;;;;5071323;28;20844;-66
2021/03/12 03:59:00;;;;;;;10.90;2.57;;;5.90;84.60;;;;;;5071787;28;20805;-67
2021/03/12 04:01:28;;;;;;;8.53;2.03;;;5.90;84.70;;;;;;5072224;28;20339;-67
2021/03/12 04:03:54;;;;;;;14.30;2.30;;;5.90;84.50;;;;;;5071058;28;20299;-66
2021/03/12 04:06:21;;;;;;;11.13;3.13;;;5.80;84.50;;;;;;5071484;28;20767;-66
2021/03/12 04:08:48;;;;;;;10.43;2.00;;;5.80;84.50;;;;;;5070959;28;20333;-67
2021/03/12 04:11:14;;;;;;;10.60;2.10;;;5.80;84.50;;;;;;5071511;28;20299;-67
2021/03/12 04:13:41;;;;;;;9.27;2.03;;;5.80;84.50;;;;;;5071762;28;20299;-66
2021/03/12 04:16:08;;;;;;;9.80;2.20;;;5.80;84.40;;;;;;5070990;28;20299;-67
2021/03/12 04:18:35;;;;;;;12.77;2.80;;;5.80;84.40;;;;;;5071933;28;20381;-66
2021/03/12 04:21:01;;;;;;;9.40;2.10;;;5.80;84.40;;;;;;5071375;28;20310;-67
2021/03/12 04:23:27;;;;;;;15.10;2.27;;;5.80;84.50;;;;;;5070963;28;20389;-66
2021/03/12 04:25:53;;;;;;;16.30;2.07;;;5.80;84.40;;;;;;5071709;28;20298;-66
2021/03/12 04:28:20;;;;;;;9.90;2.07;;;5.90;84.30;;;;;;5071590;28;20299;-67
2021/03/12 04:30:46;;;;;;;12.00;2.20;;;5.80;84.30;;;;;;5070657;28;20697;-66
2021/03/12 04:33:16;;;;;;;12.13;2.53;;;5.80;84.20;;;;;;5071425;28;20302;-67
2021/03/12 04:35:42;;;;;;;10.90;2.27;;;5.80;84.20;;;;;;5071354;28;20373;-67
2021/03/12 04:38:08;;;;;;;13.50;2.10;;;5.90;84.20;;;;;;5070432;28;20398;-67
2021/03/12 04:40:36;;;;;;;14.50;2.93;;;5.90;84.30;;;;;;5071546;28;20044;-67
2021/03/12 04:43:03;;;;;;;14.37;2.53;;;5.90;84.10;;;;;;5071214;28;20295;-67
2021/03/12 04:45:29;;;;;;;9.60;2.60;;;5.90;84.10;;;;;;5070829;28;20311;-66
2021/03/12 04:47:58;;;;;;;11.33;2.63;;;5.80;84.30;;;;;;5071228;28;20299;-67
2021/03/12 04:50:26;;;;;;;10.83;2.10;;;5.90;84.40;;;;;;5071112;28;20398;-66
2021/03/12 04:52:55;;;;;;;16.57;2.70;;;5.90;84.10;;;;;;5070718;28;20295;-66
2021/03/12 04:55:22;;;;;;;12.47;1.77;;;5.80;84.10;;;;;;5071305;28;20307;-67
2021/03/12 04:57:48;;;;;;;16.10;2.83;;;5.80;84.30;;;;;;5071145;28;20287;-66
2021/03/12 05:00:15;;;;;;;10.03;2.00;;;5.90;84.40;;;;;;5070326;28;20356;-67
2021/03/12 05:02:41;;;;;;;8.57;1.73;;;5.90;85.20;;;;;;5071002;28;20373;-66
2021/03/12 05:05:09;;;;;;;7.57;2.97;;;5.90;84.50;;;;;;5070195;28;20386;-67
2021/03/12 05:07:35;;;;;;;10.23;2.37;;;5.80;84.70;;;;;;5071521;28;20052;-67
2021/03/12 05:10:04;;;;;;;13.13;2.73;;;5.80;84.70;;;;;;5071182;28;20298;-66
2021/03/12 05:12:30;;;;;;;10.40;2.70;;;5.80;84.90;;;;;;5070688;28;20343;-67
2021/03/12 05:14:56;;;;;;;11.50;2.50;;;5.80;84.90;;;;;;5070971;28;20298;-67
2021/03/12 05:17:25;;;;;;;12.13;2.03;;;5.80;85.00;;;;;;5070760;28;20310;-66
2021/03/12 05:20:00;;;;;;;14.77;2.57;;;5.70;85.10;;;;;;5073858;28;20049;-66
2021/03/12 05:22:25;;;;;;;10.93;1.97;;;5.70;85.10;;;;;;5074990;28;20302;-66
2021/03/12 05:24:51;;;;;;;13.43;2.50;;;5.70;85.10;;;;;;5074919;28;20645;-66
2021/03/12 05:27:17;;;;;;;12.83;2.27;;;5.70;85.30;;;;;;5073991;28;20045;-66
2021/03/12 05:29:43;;;;;;;14.60;2.53;;;5.70;85.20;;;;;;5074669;28;20056;-67
2021/03/12 05:32:09;;;;;;;9.43;2.07;;;5.70;85.20;;;;;;5074699;28;20298;-66
2021/03/12 05:34:34;;;;;;;13.60;2.00;;;5.70;85.30;;;;;;5074003;28;20112;-67
2021/03/12 05:37:00;;;;;;;14.07;2.17;;;5.70;85.30;;;;;;5074694;28;20048;-67
2021/03/12 05:39:25;;;;;;;12.63;2.10;;;5.60;85.20;;;;;;5074399;28;20044;-66
2021/03/12 05:41:53;;;;;;;10.03;1.70;;;5.60;85.30;;;;;;5073607;28;20470;-67
2021/03/12 05:44:18;;;;;;;11.47;2.30;;;5.60;85.20;;;;;;5074255;28;20099;-66
2021/03/12 05:46:45;;;;;;;13.70;2.23;;;5.60;85.30;;;;;;5074202;28;20298;-67
2021/03/12 05:49:13;;;;;;;10.20;2.03;;;5.60;85.50;;;;;;5073399;28;20565;-66
2021/03/12 05:51:39;;;;;;;9.83;2.27;;;5.70;85.40;;;;;;5074306;28;20299;-66
2021/03/12 05:54:05;;;;;;;8.57;2.50;;;5.80;85.40;;;;;;5074150;28;20848;-66
2021/03/12 05:56:35;;;;;;;13.23;2.47;;;5.80;85.30;;;;;;5073853;28;20056;-67
2021/03/12 05:59:02;;;;;;;10.00;1.93;;;5.80;85.10;;;;;;5073909;28;20786;-67
2021/03/12 06:01:30;;;;;;;12.43;2.17;;;5.90;85.10;;;;;;5073438;28;20375;-66
2021/03/12 06:03:56;;;;;;;13.60;2.10;;;6.00;85.20;;;;;;5074139;28;20298;-66
2021/03/12 06:06:22;;;;;;;12.83;1.97;;;6.00;84.90;;;;;;5074074;28;20683;-66
2021/03/12 06:08:47;;;;;;;10.97;2.47;;;6.00;84.90;;;;;;5073348;28;20552;-67
2021/03/12 06:11:13;;;;;;;14.10;2.27;;;6.10;84.90;;;;;;5073688;28;20565;-66
2021/03/12 06:13:55;;;;;;;16.30;2.50;;;6.10;84.90;;;;;;5073700;28;20194;-66
2021/03/12 06:16:23;;;;;;;16.37;2.77;;;6.10;84.90;;;;;;5072994;28;20415;-67
2021/03/12 06:19:15;;;;;;;6.77;2.13;;;6.20;85.00;;;;;;5073707;28;20309;-67
2021/03/12 06:21:44;;;;;;;12.48;2.75;;;6.30;85.10;;;;;;5073269;28;20299;-67
2021/03/12 06:24:30;;;;;;;10.20;2.40;;;6.30;84.90;;;;;;5070576;28;20056;-67
2021/03/12 06:26:57;;;;;;;14.13;2.17;;;6.40;84.80;;;;;;5073481;28;20759;-67
2021/03/12 06:29:37;;;;;;;11.60;2.53;;;6.40;84.60;;;;;;5072576;28;20334;-66
2021/03/12 06:32:05;;;;;;;16.90;2.83;;;6.50;84.30;;;;;;5073193;28;20306;-67
2021/03/12 06:34:32;;;;;;;15.10;2.67;;;6.60;84.30;;;;;;5073470;28;20310;-67
2021/03/12 06:36:58;;;;;;;13.27;3.20;;;6.60;84.10;;;;;;5072590;28;20853;-67
2021/03/12 06:39:31;;;;;;;14.40;3.17;;;6.70;83.90;;;;;;5073496;28;20319;-67
2021/03/12 06:41:57;;;;;;;14.50;2.73;;;6.80;83.70;;;;;;5072918;28;20378;-67
2021/03/12 06:44:30;;;;;;;11.03;2.37;;;6.90;83.50;;;;;;5072353;28;20843;-66
2021/03/12 06:46:56;;;;;;;;;;;6.90;83.30;;;;;;5073506;28;20309;-67
2021/03/12 06:49:23;;;;;;;11.57;2.50;;;7.00;82.30;;;;;;5073140;28;19924;-66
2021/03/12 06:51:55;;;;;;;14.37;3.13;;;7.10;82.90;;;;;;5072318;28;20291;-66
2021/03/12 06:54:22;;;;;;;17.00;2.50;;;7.10;82.70;;;;;;5073409;28;20044;-67
2021/03/12 06:56:47;;;;;;;18.43;2.73;;;7.10;82.40;;;;;;5072972;28;20295;-67
2021/03/12 06:59:15;;;;;;;11.53;2.53;;;7.10;82.40;;;;;;5071853;28;20307;-67
2021/03/12 07:01:40;;;;;;;10.80;2.80;;;7.10;82.40;;;;;;5072576;28;20846;-67
2021/03/12 07:04:12;;;;;;;12.60;3.50;;;7.20;82.70;;;;;;5073011;28;20385;-67
2021/03/12 07:06:45;;;;;;;12.60;2.53;;;7.30;82.60;;;;;;5072122;28;20068;-66
2021/03/12 07:09:11;;;;;;;14.93;3.23;;;7.20;82.30;;;;;;5072245;28;20082;-66
2021/03/12 07:11:38;;;;;;;11.63;2.77;;;7.20;82.40;;;;;;5072547;28;20315;-66
2021/03/12 07:14:04;;;;;;;13.63;2.80;;;7.20;82.40;;;;;;5072111;28;20295;-66
2021/03/12 07:16:30;;;;;;;13.10;2.80;;;7.30;82.40;;;;;;5072315;28;20431;-66
2021/03/12 07:18:56;;;;;;;11.87;2.93;;;7.30;82.40;;;;;;5068736;28;20075;-66
2021/03/12 07:21:28;;;;;;;15.47;3.33;;;7.30;82.50;;;;;;5072153;28;20055;-66
2021/03/12 07:24:00;;;;;;;13.55;3.08;;;7.40;82.30;;;;;;5072429;28;20327;-66
2021/03/12 07:26:31;;;;;;;;;;;7.50;82.20;;;;;;5071939;28;20174;-66
2021/03/12 07:29:03;;;;;;;13.77;2.83;;;7.60;81.10;;;;;;5072047;28;19920;-66
2021/03/12 07:31:36;;;;;;;17.83;2.60;;;7.70;81.80;;;;;;5072712;28;20303;-66
2021/03/12 07:34:19;;;;;;;13.57;2.80;;;7.70;82.60;;;;;;5071258;28;20364;-67
2021/03/12 07:36:46;;;;;;;;;;;7.80;81.60;;;;;;5072662;28;20302;-66
2021/03/12 07:39:17;;;;;;;14.33;3.30;;;7.80;80.40;;;;;;5071953;28;19921;-67
2021/03/12 07:41:43;;;;;;;18.50;2.93;;;7.70;81.50;;;;;;5070828;28;20306;-67
2021/03/12 07:44:14;;;;;;;18.43;3.63;;;7.70;81.60;;;;;;5072008;28;20348;-66
2021/03/12 07:46:48;;;;;;;16.03;3.20;;;7.70;81.40;;;;;;5071821;28;20845;-66
2021/03/12 07:49:30;;;;;;;11.57;2.87;;;7.70;81.40;;;;;;5072074;28;20294;-66
2021/03/12 07:51:56;;;;;;;13.63;4.07;;;7.70;80.60;;;;;;5071214;28;20814;-66
2021/03/12 07:54:36;;;;;;;14.10;2.77;;;7.60;81.00;;;;;;5070684;28;20053;-66
2021/03/12 07:57:13;;;;;;;13.67;3.00;;;7.70;81.00;;;;;;5071534;28;20632;-66
2021/03/12 07:59:47;;;;;;;10.00;2.57;;;7.70;81.20;;;;;;5071598;28;20398;-66
2021/03/12 08:02:17;;;;;;;16.53;2.67;;;7.80;81.00;;;;;;5070771;28;20801;-66
2021/03/12 08:04:45;;;;;;;9.93;2.53;;;7.80;80.50;;;;;;5071563;28;20310;-66
2021/03/12 08:07:17;;;;;;;12.60;2.90;;;7.80;81.50;;;;;;5071321;28;20687;-67
2021/03/12 08:09:47;;;;;;;18.23;3.30;;;7.80;81.20;;;;;;5070963;28;20298;-67
2021/03/12 08:12:32;;;;;;;14.03;2.73;;;7.80;80.40;;;;;;5071492;28;20305;-67
2021/03/12 08:15:13;;;;;;;11.07;2.93;;;7.80;79.50;;;;;;5070207;28;21587;-67
2021/03/12 08:17:39;;;;;;;13.77;3.22;;;7.80;80.00;;;;;;5071579;28;20436;-67
2021/03/12 08:20:29;;;;;;;12.87;2.87;;;7.80;79.80;;;;;;5071188;28;20135;-67
2021/03/12 08:22:56;;;;;;;12.93;2.93;;;7.80;79.70;;;;;;5070573;28;20113;-67
2021/03/12 08:25:41;;;;;;;17.47;4.70;;;7.80;80.00;;;;;;5071315;28;20309;-67
2021/03/12 08:28:07;;;;;;;12.55;3.70;;;7.80;79.70;;;;;;5071275;28;20295;-67
2021/03/12 08:30:35;;;;;;;11.00;3.20;;;7.80;79.80;;;;;;5070889;28;20052;-67
2021/03/12 08:33:22;;;;;;;15.70;3.57;;;7.90;79.70;;;;;;5071310;28;20378;-67
2021/03/12 08:35:50;;;;;;;11.57;2.57;;;8.10;79.90;;;;;;5070354;28;20310;-67
2021/03/12 08:38:25;;;;;;;12.40;2.80;;;8.40;79.20;;;;;;5070646;28;20373;-67
2021/03/12 08:41:15;;;;;;;14.63;2.70;;;8.50;78.50;;;;;;5070989;28;20394;-65
2021/03/12 08:43:52;;;;;;;19.63;3.17;;;8.50;77.70;;;;;;5070044;28;20295;-66
2021/03/12 08:46:24;;;;;;;11.50;2.37;;;8.50;77.90;;;;;;5071148;28;20640;-67
2021/03/12 08:48:53;;;;;;;10.15;2.88;;;8.60;77.80;;;;;;5071284;28;20382;-67
2021/03/12 08:51:25;;;;;;;15.53;3.00;;;8.70;77.60;;;;;;5070419;28;20052;-67
2021/03/12 08:54:00;;;;;;;14.03;3.23;;;8.80;77.20;;;;;;5070241;28;20299;-68
2021/03/12 08:56:31;;;;;;;11.20;2.40;;;8.90;76.20;;;;;;5071287;28;20094;-67
2021/03/12 08:59:03;;;;;;;13.40;2.93;;;8.90;76.00;;;;;;5070191;28;20320;-67
2021/03/12 09:01:31;;;;;;;12.23;2.20;;;8.90;76.40;;;;;;5071282;28;20295;-67
2021/03/12 09:04:16;;;;;;;17.83;3.60;;;9.00;76.60;;;;;;5070164;28;20287;-67
2021/03/12 09:07:02;;;;;;;13.40;2.70;;;9.10;76.00;;;;;;5069647;28;20652;-67
2021/03/12 09:09:41;;;;;;;10.10;3.10;;;9.10;76.50;;;;;;5070678;28;20294;-67
2021/03/12 09:12:27;;;;;;;15.57;3.03;;;9.10;75.60;;;;;;5069810;28;20274;-67
2021/03/12 09:15:21;;;;;;;13.40;3.00;;;9.00;75.40;;;;;;5069565;28;20818;-67
2021/03/12 09:17:47;;;;;;;15.73;3.70;;;8.90;75.60;;;;;;5070990;28;20298;-68
2021/03/12 09:20:13;;;;;;;13.53;3.50;;;8.70;75.70;;;;;;5070068;28;20311;-67
2021/03/12 09:22:39;;;;;;;10.73;2.60;;;8.60;76.00;;;;;;5070856;28;20044;-68
2021/03/12 09:25:05;;;;;;;16.03;2.73;;;8.60;76.50;;;;;;5070735;28;20306;-70
2021/03/12 09:27:31;;;;;;;10.97;2.70;;;8.50;76.30;;;;;;5070340;28;20089;-68
2021/03/12 09:29:56;;;;;;;12.73;3.83;;;8.50;76.40;;;;;;5070701;28;20087;-68
2021/03/12 09:32:22;;;;;;;12.50;2.90;;;8.40;76.80;;;;;;5069724;28;20049;-68
2021/03/12 09:34:47;;;;;;;17.70;3.70;;;8.40;76.80;;;;;;5070434;28;20136;-68
2021/03/12 09:37:13;;;;;;;12.57;3.33;;;8.50;76.90;;;;;;5070973;28;20052;-68
2021/03/12 09:39:40;;;;;;;12.83;3.03;;;8.50;76.80;;;;;;5069996;28;21147;-68
2021/03/12 09:42:11;;;;;;;11.07;2.87;;;8.60;77.00;;;;;;5070492;28;20056;-69
2021/03/12 09:44:38;;;;;;;13.13;3.63;;;8.70;76.60;;;;;;5071156;28;20303;-68
2021/03/12 09:47:06;;;;;;;15.60;3.47;;;8.70;76.00;;;;;;5069710;28;20505;-68
2021/03/12 09:49:39;;;;;;;14.90;3.60;;;8.80;75.90;;;;;;5071012;28;20314;-68
2021/03/12 09:52:14;;;;;;;20.77;3.77;;;8.90;75.60;;;;;;5070559;28;20290;-68
2021/03/12 09:54:42;;;;;;;15.33;2.53;;;9.00;75.40;;;;;;5069791;28;20386;-68
2021/03/12 09:57:17;;;;;;;12.53;2.77;;;9.00;75.30;;;;;;5070240;28;20318;-67
2021/03/12 09:59:48;;;;;;;18.83;3.67;;;9.00;75.40;;;;;;5070235;28;20675;-67
2021/03/12 10:02:14;;;;;;;14.82;3.05;;;9.10;75.20;;;;;;5069420;28;20771;-68
2021/03/12 10:04:42;;;;;;;17.57;3.37;;;9.00;74.90;;;;;;5072107;28;20049;-69
2021/03/12 10:07:17;;;;;;;17.67;4.13;;;9.00;74.80;;;;;;5073950;28;20089;-68
2021/03/12 10:09:47;;;;;;;16.63;3.17;;;8.90;75.30;;;;;;5073088;28;20306;-68
2021/03/12 10:12:20;;;;;;;11.80;2.87;;;8.80;76.60;;;;;;5073343;28;20711;-68
2021/03/12 10:14:50;;;;;;;13.40;2.63;;;8.70;76.10;;;;;;5073020;28;20632;-68
2021/03/12 10:17:19;;;;;;;19.80;3.37;;;8.80;76.50;;;;;;5073795;28;20351;-69
2021/03/12 10:19:49;;;;;;;18.30;2.83;;;8.70;76.90;;;;;;5073328;28;20325;-68
2021/03/12 10:22:37;;;;;;;12.87;2.63;;;8.80;77.30;;;;;;5073119;28;20306;-68
2021/03/12 10:25:13;;;;;;;12.03;3.20;;;8.90;77.40;;;;;;5073723;28;20327;-68
2021/03/12 10:27:42;;;;;;;14.43;4.03;;;9.00;77.50;;;;;;5073649;28;20691;-68
2021/03/12 10:30:09;;;;;;;10.40;2.57;;;9.10;77.10;;;;;;5072584;28;20298;-68
2021/03/12 10:32:40;;;;;;;16.70;3.47;;;9.20;77.20;;;;;;5073965;28;20294;-68
2021/03/12 10:35:19;;;;;;;13.47;3.73;;;9.20;77.40;;;;;;5073611;28;20342;-68
2021/03/12 10:37:46;;;;;;;17.77;3.50;;;9.20;78.20;;;;;;5072559;28;20374;-68
2021/03/12 10:40:12;;;;;;;13.93;2.97;;;9.10;78.20;;;;;;5073152;28;20346;-69
2021/03/12 10:42:38;;;;;;;12.00;3.23;;;9.10;78.50;;;;;;5072798;28;20364;-68
2021/03/12 10:45:20;;;;;;;15.37;3.60;;;9.10;78.60;;;;;;5072939;28;20303;-68
2021/03/12 10:48:00;;;;;;;15.10;3.60;;;8.90;78.80;;;;;;5073231;28;20508;-68
2021/03/12 10:50:27;;;;;;;17.77;3.07;;;8.90;78.90;;;;;;5072582;28;20310;-68
2021/03/12 10:53:22;;;;;;;14.23;3.37;;;8.80;79.40;;;;;;5073142;28;20378;-68
2021/03/12 10:55:52;;;;;;;12.70;3.47;;;8.80;79.80;;;;;;5072296;28;20358;-68
2021/03/12 10:58:33;;;;;;;18.03;3.73;;;8.80;79.90;;;;;;5072060;28;20373;-68
2021/03/12 11:01:12;;;;;;;16.27;3.47;;;8.90;80.20;;;;;;5071629;28;20318;-68
2021/03/12 11:03:40;;;;;;;16.70;4.40;;;9.00;80.20;;;;;;5073024;28;20291;-69
2021/03/12 11:06:06;;;;;;;13.27;3.33;;;9.10;79.70;;;;;;5072281;28;20421;-68
2021/03/12 11:08:32;;;;;;;11.97;3.17;;;9.20;79.20;;;;;;5072923;28;20386;-69
2021/03/12 11:11:00;;;;;;;17.43;4.37;;;9.20;79.10;;;;;;5071550;28;20314;-68
2021/03/12 11:13:25;;;;;;;12.50;3.83;;;9.30;79.20;;;;;;5071841;28;20362;-69
2021/03/12 11:15:51;;;;;;;20.03;3.90;;;9.30;79.20;;;;;;5071640;28;20390;-68
2021/03/12 11:18:17;;;;;;;18.50;4.00;;;9.20;79.00;;;;;;5071768;28;20055;-68
2021/03/12 11:20:43;;;;;;;16.47;3.87;;;9.20;79.10;;;;;;5072494;28;20056;-69
2021/03/12 11:23:10;;;;;;;19.17;4.00;;;9.10;79.10;;;;;;5072310;28;20448;-67
2021/03/12 11:25:37;;;;;;;19.50;4.77;;;9.10;79.50;;;;;;5071859;28;20298;-68
2021/03/12 11:28:03;;;;;;;17.63;4.67;;;9.00;79.60;;;;;;5072019;28;20640;-68
2021/03/12 11:30:28;;;;;;;17.40;4.33;;;9.00;80.10;;;;;;5072561;28;20302;-68
2021/03/12 11:32:54;;;;;;;18.30;4.13;;;9.00;80.60;;;;;;5071668;28;20044;-68
2021/03/12 11:35:20;;;;;;;14.87;4.00;;;8.90;80.90;;;;;;5072255;28;20470;-68
2021/03/12 11:37:46;;;;;;;12.90;4.00;;;8.80;81.30;;;;;;5067357;28;20040;-69
2021/03/12 11:40:13;;;;;;;11.87;3.33;;;8.80;81.60;;;;;;5071186;28;20318;-67
2021/03/12 11:42:39;;;;;;;10.87;3.10;;;8.60;81.50;;;;;;5071426;28;20052;-69
2021/03/12 11:45:16;;;;;;;8.67;2.80;;;8.50;81.60;;;;;;5072195;28;20846;-69
2021/03/12 11:47:42;;;;;;;10.93;2.93;;;8.30;82.10;;;;;;5071226;28;20396;-67
2021/03/12 11:50:12;;;;;;;12.63;3.67;;;8.20;82.60;;;;;;5072049;28;20386;-68
2021/03/12 11:52:38;;;;;;;13.70;3.07;;;8.10;82.70;;;;;;5072271;28;20322;-67
2021/03/12 11:55:06;;;;;;;10.27;3.77;;;8.00;83.30;;;;;;5071032;28;20341;-68
2021/03/12 11:57:32;;;;;;;11.43;3.90;;;8.00;83.40;;;;;;5072076;28;20050;-67
2021/03/12 11:59:58;;;;;;;11.17;6.43;;;7.90;83.70;;;;;;5071453;28;20745;-67
2021/03/12 12:02:23;;;;;;;10.47;3.47;;;7.90;84.10;;;;;;5071280;28;20048;-67
2021/03/12 12:04:49;;;;;;;10.80;3.30;;;7.90;84.30;;;;;;5071770;28;20569;-68
2021/03/12 12:07:15;;;;;;;9.83;3.50;;;8.00;84.60;;;;;;5070921;28;20060;-69
2021/03/12 12:09:42;;;;;;;7.43;2.80;;;8.10;84.70;;;;;;5071444;28;20040;-69
2021/03/12 12:12:09;;;;;;;14.03;5.80;;;8.20;84.40;;;;;;5071407;28;20307;-68
2021/03/12 12:14:35;;;;;;;9.70;3.33;;;8.30;84.30;;;;;;5071037;28;20663;-68
2021/03/12 12:17:02;;;;;;;7.97;3.97;;;8.30;83.90;;;;;;5071569;28;20302;-68
2021/03/12 12:19:27;;;;;;;7.10;3.80;;;8.30;84.00;;;;;;5071480;28;20070;-68
2021/03/12 12:21:53;;;;;;;7.97;3.00;;;8.40;84.10;;;;;;5070366;28;20303;-69
2021/03/12 12:24:18;;;;;;;7.50;2.30;;;8.40;83.80;;;;;;5070862;28;20037;-68
2021/03/12 12:26:44;;;;;;;9.47;2.47;;;8.40;83.30;;;;;;5070947;28;20067;-68
2021/03/12 12:29:10;;;;;;;7.90;2.80;;;8.50;83.30;;;;;;5073457;28;20044;-68
2021/03/12 12:31:36;;;;;;;8.00;3.53;;;8.60;83.40;;;;;;5078639;28;20048;-69
2021/03/12 12:34:02;;;;;;;8.60;2.70;;;8.70;84.20;;;;;;5086637;28;20078;-67
2021/03/12 12:36:29;;;;;;;12.27;2.67;;;8.80;83.20;;;;;;5087237;28;20347;-67
2021/03/12 12:38:56;;;;;;;10.53;2.70;;;9.00;82.30;;;;;;5088329;28;20320;-67
2021/03/12 12:41:22;;;;;;;7.93;2.63;;;9.10;81.90;;;;;;5075491;28;20376;-69
2021/03/12 12:43:48;;;;;;;8.27;2.50;;;9.20;81.60;;;;;;5086559;28;20310;-68
2021/03/12 12:46:14;;;;;;;9.27;3.00;;;9.30;81.10;;;;;;5088266;28;20066;-68
2021/03/12 12:48:40;;;;;;;8.83;3.47;;;9.50;81.10;;;;;;5075757;28;20306;-68
2021/03/12 12:51:06;;;;;;;12.80;3.23;;;9.60;80.60;;;;;;5078557;28;20294;-68
2021/03/12 12:53:32;;;;;;;10.03;3.13;;;9.60;80.80;;;;;;5081003;28;20051;-67
2021/03/12 12:55:59;;;;;;;9.63;3.40;;;9.70;80.20;;;;;;5083874;28;20338;-68
2021/03/12 12:58:25;;;;;;;8.83;3.00;;;9.90;80.70;;;;;;5077185;28;20379;-67